sensor_id;sensor_type;location;lat;lon;timestamp;P1;durP1;ratioP1;P2;durP2;ratioP2
5483;SDS011;2764;48.794;8.326;2023-04-25T00:00:06;6.47;;;5.70;;
5483;SDS011;2764;48.794;8.326;2023-04-25T00:01:08;5.60;;;5.20;;
5483;SDS011;2764;48.794;8.326;2023-04-25T00:02:10;9.20;;;5.47;;
5483;SDS011;2764;48.794;8.326;2023-04-25T00:03:12;4.70;;;4.20;;
5483;SDS011;2764;48.794;8.326;2023-04-25T00:04:17;7.82;;;4.32;;
5483;SDS011;2764;48.794;8.326;2023-04-25T00:05:20;6.72;;;4.38;;
5483;SDS011;2764;48.794;8.326;2023-04-25T00:06:24;6.03;;;4.70;;
5483;SDS011;2764;48.794;8.326;2023-04-25T00:07:29;5.00;;;4.60;;
5483;SDS011;2764;48.794;8.326;2023-04-25T00:08:33;8.57;;;5.53;;
5483;SDS011;2764;48.794;8.326;2023-04-25T00:09:35;7.35;;;4.93;;
5483;SDS011;2764;48.794;8.326;2023-04-25T00:10:37;5.97;;;5.35;;
5483;SDS011;2764;48.794;8.326;2023-04-25T00:11:40;6.90;;;6.30;;
5483;SDS011;2764;48.794;8.326;2023-04-25T00:12:42;12.63;;;6.47;;
5483;SDS011;2764;48.794;8.326;2023-04-25T00:13:44;8.98;;;6.35;;
5483;SDS011;2764;48.794;8.326;2023-04-25T00:14:48;7.75;;;6.45;;
5483;SDS011;2764;48.794;8.326;2023-04-25T00:15:51;5.60;;;5.20;;
5483;SDS011;2764;48.794;8.326;2023-04-25T00:16:54;7.68;;;5.90;;
5483;SDS011;2764;48.794;8.326;2023-04-25T00:17:56;8.57;;;6.13;;
5483;SDS011;2764;48.794;8.326;2023-04-25T00:18:58;6.03;;;5.32;;
5483;SDS011;2764;48.794;8.326;2023-04-25T00:20:00;8.88;;;5.88;;
5483;SDS011;2764;48.794;8.326;2023-04-25T00:21:02;6.80;;;6.15;;
5483;SDS011;2764;48.794;8.326;2023-04-25T00:22:04;7.65;;;6.00;;
5483;SDS011;2764;48.794;8.326;2023-04-25T00:23:07;10.82;;;6.55;;
5483;SDS011;2764;48.794;8.326;2023-04-25T00:24:09;9.32;;;5.78;;
5483;SDS011;2764;48.794;8.326;2023-04-25T00:25:11;10.35;;;6.85;;
5483;SDS011;2764;48.794;8.326;2023-04-25T00:26:13;8.70;;;7.80;;
5483;SDS011;2764;48.794;8.326;2023-04-25T00:27:15;11.35;;;7.35;;
5483;SDS011;2764;48.794;8.326;2023-04-25T00:28:17;13.13;;;6.97;;
5483;SDS011;2764;48.794;8.326;2023-04-25T00:29:20;10.93;;;7.30;;
5483;SDS011;2764;48.794;8.326;2023-04-25T00:30:23;10.25;;;7.60;;
5483;SDS011;2764;48.794;8.326;2023-04-25T00:31:24;8.50;;;7.60;;
5483;SDS011;2764;48.794;8.326;2023-04-25T00:32:26;7.75;;;6.65;;
5483;SDS011;2764;48.794;8.326;2023-04-25T00:33:28;9.95;;;6.88;;
5483;SDS011;2764;48.794;8.326;2023-04-25T00:34:29;13.25;;;6.97;;
5483;SDS011;2764;48.794;8.326;2023-04-25T00:35:31;12.65;;;7.00;;
5483;SDS011;2764;48.794;8.326;2023-04-25T00:36:34;9.18;;;7.10;;
5483;SDS011;2764;48.794;8.326;2023-04-25T00:37:37;7.75;;;6.95;;
5483;SDS011;2764;48.794;8.326;2023-04-25T00:38:40;7.50;;;6.45;;
5483;SDS011;2764;48.794;8.326;2023-04-25T00:39:41;11.27;;;6.70;;
5483;SDS011;2764;48.794;8.326;2023-04-25T00:40:44;11.13;;;7.03;;
5483;SDS011;2764;48.794;8.326;2023-04-25T00:41:45;12.50;;;8.13;;
5483;SDS011;2764;48.794;8.326;2023-04-25T00:42:47;12.02;;;8.65;;
5483;SDS011;2764;48.794;8.326;2023-04-25T00:43:51;8.18;;;7.38;;
5483;SDS011;2764;48.794;8.326;2023-04-25T00:44:53;10.63;;;8.20;;
5483;SDS011;2764;48.794;8.326;2023-04-25T00:45:56;8.70;;;7.82;;
5483;SDS011;2764;48.794;8.326;2023-04-25T00:47:00;10.40;;;7.82;;
5483;SDS011;2764;48.794;8.326;2023-04-25T00:48:04;16.73;;;9.00;;
5483;SDS011;2764;48.794;8.326;2023-04-25T00:49:06;12.57;;;8.63;;
5483;SDS011;2764;48.794;8.326;2023-04-25T00:50:08;8.75;;;7.95;;
5483;SDS011;2764;48.794;8.326;2023-04-25T00:51:10;12.90;;;8.38;;
5483;SDS011;2764;48.794;8.326;2023-04-25T00:52:15;11.93;;;8.15;;
5483;SDS011;2764;48.794;8.326;2023-04-25T00:53:17;19.63;;;8.95;;
5483;SDS011;2764;48.794;8.326;2023-04-25T00:54:19;11.35;;;8.48;;
5483;SDS011;2764;48.794;8.326;2023-04-25T00:55:24;11.80;;;8.90;;
5483;SDS011;2764;48.794;8.326;2023-04-25T00:56:26;9.70;;;8.73;;
5483;SDS011;2764;48.794;8.326;2023-04-25T00:57:27;9.77;;;8.85;;
5483;SDS011;2764;48.794;8.326;2023-04-25T00:58:30;11.55;;;9.18;;
5483;SDS011;2764;48.794;8.326;2023-04-25T00:59:33;15.50;;;9.80;;
5483;SDS011;2764;48.794;8.326;2023-04-25T01:00:38;11.85;;;9.63;;
5483;SDS011;2764;48.794;8.326;2023-04-25T01:01:40;30.00;;;12.77;;
5483;SDS011;2764;48.794;8.326;2023-04-25T01:02:45;22.20;;;16.25;;
5483;SDS011;2764;48.794;8.326;2023-04-25T01:03:48;24.15;;;15.20;;
5483;SDS011;2764;48.794;8.326;2023-04-25T01:04:52;15.88;;;12.65;;
5483;SDS011;2764;48.794;8.326;2023-04-25T01:05:55;15.90;;;11.80;;
5483;SDS011;2764;48.794;8.326;2023-04-25T01:06:57;11.98;;;10.70;;
5483;SDS011;2764;48.794;8.326;2023-04-25T01:07:59;11.30;;;9.93;;
5483;SDS011;2764;48.794;8.326;2023-04-25T01:09:02;10.73;;;9.63;;
5483;SDS011;2764;48.794;8.326;2023-04-25T01:10:05;9.60;;;8.73;;
5483;SDS011;2764;48.794;8.326;2023-04-25T01:11:08;10.73;;;8.10;;
5483;SDS011;2764;48.794;8.326;2023-04-25T01:12:10;15.48;;;10.20;;
5483;SDS011;2764;48.794;8.326;2023-04-25T01:13:12;9.75;;;8.85;;
5483;SDS011;2764;48.794;8.326;2023-04-25T01:14:14;12.23;;;8.85;;
5483;SDS011;2764;48.794;8.326;2023-04-25T01:15:16;16.60;;;10.10;;
5483;SDS011;2764;48.794;8.326;2023-04-25T01:16:19;17.70;;;10.02;;
5483;SDS011;2764;48.794;8.326;2023-04-25T01:17:21;15.18;;;9.98;;
5483;SDS011;2764;48.794;8.326;2023-04-25T01:18:23;18.73;;;16.55;;
5483;SDS011;2764;48.794;8.326;2023-04-25T01:19:25;17.45;;;14.07;;
5483;SDS011;2764;48.794;8.326;2023-04-25T01:20:27;12.45;;;10.75;;
5483;SDS011;2764;48.794;8.326;2023-04-25T01:21:30;12.18;;;9.70;;
5483;SDS011;2764;48.794;8.326;2023-04-25T01:22:32;14.38;;;11.23;;
5483;SDS011;2764;48.794;8.326;2023-04-25T01:23:36;12.07;;;10.50;;
5483;SDS011;2764;48.794;8.326;2023-04-25T01:24:38;11.90;;;10.65;;
5483;SDS011;2764;48.794;8.326;2023-04-25T01:25:40;15.52;;;10.65;;
5483;SDS011;2764;48.794;8.326;2023-04-25T01:26:42;17.02;;;11.05;;
5483;SDS011;2764;48.794;8.326;2023-04-25T01:27:52;23.73;;;11.00;;
5483;SDS011;2764;48.794;8.326;2023-04-25T01:28:55;19.05;;;12.27;;
5483;SDS011;2764;48.794;8.326;2023-04-25T01:29:57;18.23;;;13.15;;
5483;SDS011;2764;48.794;8.326;2023-04-25T01:31:01;15.38;;;11.90;;
5483;SDS011;2764;48.794;8.326;2023-04-25T01:32:03;16.27;;;11.43;;
5483;SDS011;2764;48.794;8.326;2023-04-25T01:33:07;24.60;;;13.00;;
5483;SDS011;2764;48.794;8.326;2023-04-25T01:34:10;16.27;;;11.25;;
5483;SDS011;2764;48.794;8.326;2023-04-25T01:35:12;15.63;;;12.20;;
5483;SDS011;2764;48.794;8.326;2023-04-25T01:36:14;20.08;;;13.52;;
5483;SDS011;2764;48.794;8.326;2023-04-25T01:37:16;14.27;;;12.98;;
5483;SDS011;2764;48.794;8.326;2023-04-25T01:38:19;14.35;;;12.30;;
5483;SDS011;2764;48.794;8.326;2023-04-25T01:39:21;18.65;;;12.75;;
5483;SDS011;2764;48.794;8.326;2023-04-25T01:40:23;21.00;;;12.85;;
5483;SDS011;2764;48.794;8.326;2023-04-25T01:41:25;26.05;;;12.68;;
5483;SDS011;2764;48.794;8.326;2023-04-25T01:42:28;17.48;;;12.88;;
5483;SDS011;2764;48.794;8.326;2023-04-25T01:43:32;22.25;;;12.88;;
5483;SDS011;2764;48.794;8.326;2023-04-25T01:44:34;23.45;;;12.63;;
5483;SDS011;2764;48.794;8.326;2023-04-25T01:45:36;12.38;;;10.82;;
5483;SDS011;2764;48.794;8.326;2023-04-25T01:46:42;15.40;;;11.30;;
5483;SDS011;2764;48.794;8.326;2023-04-25T01:47:45;18.23;;;13.18;;
5483;SDS011;2764;48.794;8.326;2023-04-25T01:48:50;23.77;;;18.02;;
5483;SDS011;2764;48.794;8.326;2023-04-25T01:49:54;29.15;;;19.52;;
5483;SDS011;2764;48.794;8.326;2023-04-25T01:50:56;19.10;;;15.93;;
5483;SDS011;2764;48.794;8.326;2023-04-25T01:51:58;18.33;;;12.85;;
5483;SDS011;2764;48.794;8.326;2023-04-25T01:53:00;16.05;;;13.10;;
5483;SDS011;2764;48.794;8.326;2023-04-25T01:54:03;15.23;;;12.85;;
5483;SDS011;2764;48.794;8.326;2023-04-25T01:55:06;23.95;;;17.15;;
5483;SDS011;2764;48.794;8.326;2023-04-25T01:56:07;28.30;;;19.45;;
5483;SDS011;2764;48.794;8.326;2023-04-25T01:57:12;17.90;;;13.68;;
5483;SDS011;2764;48.794;8.326;2023-04-25T01:58:15;17.45;;;13.85;;
5483;SDS011;2764;48.794;8.326;2023-04-25T01:59:18;20.35;;;14.70;;
5483;SDS011;2764;48.794;8.326;2023-04-25T02:00:22;17.67;;;14.02;;
5483;SDS011;2764;48.794;8.326;2023-04-25T02:01:23;22.02;;;13.77;;
5483;SDS011;2764;48.794;8.326;2023-04-25T02:02:25;17.40;;;13.00;;
5483;SDS011;2764;48.794;8.326;2023-04-25T02:03:28;21.88;;;14.07;;
5483;SDS011;2764;48.794;8.326;2023-04-25T02:04:31;18.30;;;13.48;;
5483;SDS011;2764;48.794;8.326;2023-04-25T02:05:37;21.83;;;13.27;;
5483;SDS011;2764;48.794;8.326;2023-04-25T02:06:39;16.08;;;12.90;;
5483;SDS011;2764;48.794;8.326;2023-04-25T02:07:41;22.75;;;13.93;;
5483;SDS011;2764;48.794;8.326;2023-04-25T02:08:43;18.52;;;13.27;;
5483;SDS011;2764;48.794;8.326;2023-04-25T02:09:45;21.15;;;15.35;;
5483;SDS011;2764;48.794;8.326;2023-04-25T02:10:46;35.88;;;21.17;;
5483;SDS011;2764;48.794;8.326;2023-04-25T02:11:48;32.75;;;22.17;;
5483;SDS011;2764;48.794;8.326;2023-04-25T02:12:50;59.75;;;35.15;;
5483;SDS011;2764;48.794;8.326;2023-04-25T02:13:53;53.25;;;30.30;;
5483;SDS011;2764;48.794;8.326;2023-04-25T02:14:55;32.22;;;17.17;;
5483;SDS011;2764;48.794;8.326;2023-04-25T02:15:57;21.17;;;13.27;;
5483;SDS011;2764;48.794;8.326;2023-04-25T02:17:00;16.77;;;13.85;;
5483;SDS011;2764;48.794;8.326;2023-04-25T02:18:03;27.02;;;13.98;;
5483;SDS011;2764;48.794;8.326;2023-04-25T02:19:07;21.63;;;14.45;;
5483;SDS011;2764;48.794;8.326;2023-04-25T02:20:09;19.48;;;13.30;;
5483;SDS011;2764;48.794;8.326;2023-04-25T02:21:11;19.58;;;13.13;;
5483;SDS011;2764;48.794;8.326;2023-04-25T02:22:13;22.38;;;14.73;;
5483;SDS011;2764;48.794;8.326;2023-04-25T02:23:15;16.15;;;12.50;;
5483;SDS011;2764;48.794;8.326;2023-04-25T02:24:17;19.55;;;13.60;;
5483;SDS011;2764;48.794;8.326;2023-04-25T02:25:19;17.23;;;13.05;;
5483;SDS011;2764;48.794;8.326;2023-04-25T02:26:21;15.65;;;12.25;;
5483;SDS011;2764;48.794;8.326;2023-04-25T02:27:25;22.58;;;13.77;;
5483;SDS011;2764;48.794;8.326;2023-04-25T02:28:27;23.10;;;13.57;;
5483;SDS011;2764;48.794;8.326;2023-04-25T02:29:29;29.58;;;16.02;;
5483;SDS011;2764;48.794;8.326;2023-04-25T02:30:30;21.92;;;14.15;;
5483;SDS011;2764;48.794;8.326;2023-04-25T02:31:32;24.80;;;14.43;;
5483;SDS011;2764;48.794;8.326;2023-04-25T02:32:34;15.80;;;13.48;;
5483;SDS011;2764;48.794;8.326;2023-04-25T02:33:36;16.70;;;13.20;;
5483;SDS011;2764;48.794;8.326;2023-04-25T02:34:38;18.27;;;13.20;;
5483;SDS011;2764;48.794;8.326;2023-04-25T02:35:39;18.27;;;13.10;;
5483;SDS011;2764;48.794;8.326;2023-04-25T02:36:41;27.30;;;15.88;;
5483;SDS011;2764;48.794;8.326;2023-04-25T02:37:43;22.33;;;15.82;;
5483;SDS011;2764;48.794;8.326;2023-04-25T02:38:44;20.98;;;14.25;;
5483;SDS011;2764;48.794;8.326;2023-04-25T02:39:47;21.10;;;14.23;;
5483;SDS011;2764;48.794;8.326;2023-04-25T02:40:50;19.25;;;15.00;;
5483;SDS011;2764;48.794;8.326;2023-04-25T02:41:52;20.10;;;12.43;;
5483;SDS011;2764;48.794;8.326;2023-04-25T02:42:55;17.30;;;14.52;;
5483;SDS011;2764;48.794;8.326;2023-04-25T02:43:57;27.13;;;14.57;;
5483;SDS011;2764;48.794;8.326;2023-04-25T02:45:00;15.18;;;13.32;;
5483;SDS011;2764;48.794;8.326;2023-04-25T02:46:02;20.88;;;13.88;;
5483;SDS011;2764;48.794;8.326;2023-04-25T02:47:03;21.25;;;13.30;;
5483;SDS011;2764;48.794;8.326;2023-04-25T02:48:05;20.17;;;14.30;;
5483;SDS011;2764;48.794;8.326;2023-04-25T02:49:07;26.02;;;15.40;;
5483;SDS011;2764;48.794;8.326;2023-04-25T02:50:09;19.15;;;15.07;;
5483;SDS011;2764;48.794;8.326;2023-04-25T02:51:10;21.88;;;14.77;;
5483;SDS011;2764;48.794;8.326;2023-04-25T02:52:12;24.73;;;14.73;;
5483;SDS011;2764;48.794;8.326;2023-04-25T02:53:15;19.73;;;15.02;;
5483;SDS011;2764;48.794;8.326;2023-04-25T02:54:17;26.73;;;16.00;;
5483;SDS011;2764;48.794;8.326;2023-04-25T02:55:18;25.75;;;15.98;;
5483;SDS011;2764;48.794;8.326;2023-04-25T02:56:20;23.25;;;15.68;;
5483;SDS011;2764;48.794;8.326;2023-04-25T02:57:22;21.67;;;15.68;;
5483;SDS011;2764;48.794;8.326;2023-04-25T02:58:25;28.27;;;15.65;;
5483;SDS011;2764;48.794;8.326;2023-04-25T02:59:27;33.45;;;15.55;;
5483;SDS011;2764;48.794;8.326;2023-04-25T03:00:28;31.73;;;20.23;;
5483;SDS011;2764;48.794;8.326;2023-04-25T03:01:30;41.90;;;23.45;;
5483;SDS011;2764;48.794;8.326;2023-04-25T03:02:32;40.90;;;22.73;;
5483;SDS011;2764;48.794;8.326;2023-04-25T03:03:34;30.67;;;20.27;;
5483;SDS011;2764;48.794;8.326;2023-04-25T03:04:36;24.67;;;16.50;;
5483;SDS011;2764;48.794;8.326;2023-04-25T03:05:38;27.98;;;16.60;;
5483;SDS011;2764;48.794;8.326;2023-04-25T03:06:41;23.02;;;16.75;;
5483;SDS011;2764;48.794;8.326;2023-04-25T03:07:44;23.17;;;16.00;;
5483;SDS011;2764;48.794;8.326;2023-04-25T03:08:46;30.40;;;17.92;;
5483;SDS011;2764;48.794;8.326;2023-04-25T03:09:48;28.05;;;18.20;;
5483;SDS011;2764;48.794;8.326;2023-04-25T03:10:49;29.08;;;18.40;;
5483;SDS011;2764;48.794;8.326;2023-04-25T03:11:53;25.65;;;16.20;;
5483;SDS011;2764;48.794;8.326;2023-04-25T03:12:55;28.73;;;17.80;;
5483;SDS011;2764;48.794;8.326;2023-04-25T03:13:58;25.23;;;17.15;;
5483;SDS011;2764;48.794;8.326;2023-04-25T03:14:59;19.45;;;15.38;;
5483;SDS011;2764;48.794;8.326;2023-04-25T03:16:01;27.58;;;18.55;;
5483;SDS011;2764;48.794;8.326;2023-04-25T03:17:04;34.97;;;18.73;;
5483;SDS011;2764;48.794;8.326;2023-04-25T03:18:05;36.40;;;18.33;;
5483;SDS011;2764;48.794;8.326;2023-04-25T03:19:10;33.75;;;19.60;;
5483;SDS011;2764;48.794;8.326;2023-04-25T03:20:13;29.40;;;17.40;;
5483;SDS011;2764;48.794;8.326;2023-04-25T03:21:16;22.17;;;16.33;;
5483;SDS011;2764;48.794;8.326;2023-04-25T03:22:17;18.15;;;14.63;;
5483;SDS011;2764;48.794;8.326;2023-04-25T03:23:19;29.77;;;15.63;;
5483;SDS011;2764;48.794;8.326;2023-04-25T03:24:21;22.92;;;15.23;;
5483;SDS011;2764;48.794;8.326;2023-04-25T03:25:23;25.38;;;16.25;;
5483;SDS011;2764;48.794;8.326;2023-04-25T03:26:24;24.05;;;16.10;;
5483;SDS011;2764;48.794;8.326;2023-04-25T03:27:27;25.25;;;16.75;;
5483;SDS011;2764;48.794;8.326;2023-04-25T03:28:29;22.33;;;16.73;;
5483;SDS011;2764;48.794;8.326;2023-04-25T03:29:33;22.98;;;16.98;;
5483;SDS011;2764;48.794;8.326;2023-04-25T03:30:34;26.10;;;17.05;;
5483;SDS011;2764;48.794;8.326;2023-04-25T03:31:36;24.48;;;17.15;;
5483;SDS011;2764;48.794;8.326;2023-04-25T03:32:40;26.75;;;18.33;;
5483;SDS011;2764;48.794;8.326;2023-04-25T03:33:43;21.58;;;16.55;;
5483;SDS011;2764;48.794;8.326;2023-04-25T03:34:45;28.90;;;16.98;;
5483;SDS011;2764;48.794;8.326;2023-04-25T03:35:47;23.45;;;16.38;;
5483;SDS011;2764;48.794;8.326;2023-04-25T03:36:49;24.73;;;15.30;;
5483;SDS011;2764;48.794;8.326;2023-04-25T03:37:51;25.75;;;15.60;;
5483;SDS011;2764;48.794;8.326;2023-04-25T03:38:53;30.00;;;15.20;;
5483;SDS011;2764;48.794;8.326;2023-04-25T03:39:55;26.45;;;16.17;;
5483;SDS011;2764;48.794;8.326;2023-04-25T03:40:57;28.92;;;16.13;;
5483;SDS011;2764;48.794;8.326;2023-04-25T03:41:59;23.00;;;15.05;;
5483;SDS011;2764;48.794;8.326;2023-04-25T03:43:01;28.15;;;17.63;;
5483;SDS011;2764;48.794;8.326;2023-04-25T03:44:03;27.00;;;16.40;;
5483;SDS011;2764;48.794;8.326;2023-04-25T03:45:05;20.02;;;14.13;;
5483;SDS011;2764;48.794;8.326;2023-04-25T03:46:07;22.63;;;16.17;;
5483;SDS011;2764;48.794;8.326;2023-04-25T03:47:09;24.13;;;15.98;;
5483;SDS011;2764;48.794;8.326;2023-04-25T03:48:11;21.58;;;14.80;;
5483;SDS011;2764;48.794;8.326;2023-04-25T03:49:13;23.10;;;14.15;;
5483;SDS011;2764;48.794;8.326;2023-04-25T03:50:18;20.27;;;13.57;;
5483;SDS011;2764;48.794;8.326;2023-04-25T03:51:24;18.80;;;13.25;;
5483;SDS011;2764;48.794;8.326;2023-04-25T03:52:27;17.50;;;13.43;;
5483;SDS011;2764;48.794;8.326;2023-04-25T03:53:30;19.63;;;12.52;;
5483;SDS011;2764;48.794;8.326;2023-04-25T03:54:32;22.25;;;14.77;;
5483;SDS011;2764;48.794;8.326;2023-04-25T03:55:34;20.08;;;14.38;;
5483;SDS011;2764;48.794;8.326;2023-04-25T03:56:36;15.50;;;12.85;;
5483;SDS011;2764;48.794;8.326;2023-04-25T03:57:40;16.02;;;12.30;;
5483;SDS011;2764;48.794;8.326;2023-04-25T03:58:42;15.30;;;12.77;;
5483;SDS011;2764;48.794;8.326;2023-04-25T03:59:47;21.17;;;13.15;;
5483;SDS011;2764;48.794;8.326;2023-04-25T04:00:52;19.83;;;13.98;;
5483;SDS011;2764;48.794;8.326;2023-04-25T04:01:54;15.07;;;12.25;;
5483;SDS011;2764;48.794;8.326;2023-04-25T04:02:56;15.07;;;13.10;;
5483;SDS011;2764;48.794;8.326;2023-04-25T04:03:58;17.15;;;12.88;;
5483;SDS011;2764;48.794;8.326;2023-04-25T04:05:00;20.40;;;12.75;;
5483;SDS011;2764;48.794;8.326;2023-04-25T04:06:03;15.57;;;12.30;;
5483;SDS011;2764;48.794;8.326;2023-04-25T04:07:08;21.65;;;12.90;;
5483;SDS011;2764;48.794;8.326;2023-04-25T04:08:11;26.20;;;13.27;;
5483;SDS011;2764;48.794;8.326;2023-04-25T04:09:15;17.40;;;13.20;;
5483;SDS011;2764;48.794;8.326;2023-04-25T04:10:18;19.20;;;14.18;;
5483;SDS011;2764;48.794;8.326;2023-04-25T04:11:20;20.30;;;13.95;;
5483;SDS011;2764;48.794;8.326;2023-04-25T04:12:22;16.42;;;13.48;;
5483;SDS011;2764;48.794;8.326;2023-04-25T04:13:29;20.10;;;13.18;;
5483;SDS011;2764;48.794;8.326;2023-04-25T04:14:31;18.73;;;13.95;;
5483;SDS011;2764;48.794;8.326;2023-04-25T04:15:32;21.13;;;13.90;;
5483;SDS011;2764;48.794;8.326;2023-04-25T04:16:34;24.77;;;14.95;;
5483;SDS011;2764;48.794;8.326;2023-04-25T04:17:36;16.98;;;14.40;;
5483;SDS011;2764;48.794;8.326;2023-04-25T04:18:39;21.35;;;14.85;;
5483;SDS011;2764;48.794;8.326;2023-04-25T04:19:41;23.10;;;14.95;;
5483;SDS011;2764;48.794;8.326;2023-04-25T04:20:43;23.20;;;16.25;;
5483;SDS011;2764;48.794;8.326;2023-04-25T04:21:46;22.63;;;15.95;;
5483;SDS011;2764;48.794;8.326;2023-04-25T04:22:48;22.42;;;16.65;;
5483;SDS011;2764;48.794;8.326;2023-04-25T04:23:50;23.10;;;16.40;;
5483;SDS011;2764;48.794;8.326;2023-04-25T04:24:53;20.30;;;14.93;;
5483;SDS011;2764;48.794;8.326;2023-04-25T04:25:55;15.93;;;13.35;;
5483;SDS011;2764;48.794;8.326;2023-04-25T04:26:57;22.95;;;15.63;;
5483;SDS011;2764;48.794;8.326;2023-04-25T04:28:00;22.90;;;16.05;;
5483;SDS011;2764;48.794;8.326;2023-04-25T04:29:02;18.67;;;14.85;;
5483;SDS011;2764;48.794;8.326;2023-04-25T04:30:04;21.50;;;16.80;;
5483;SDS011;2764;48.794;8.326;2023-04-25T04:31:08;26.90;;;15.73;;
5483;SDS011;2764;48.794;8.326;2023-04-25T04:32:12;25.67;;;15.02;;
5483;SDS011;2764;48.794;8.326;2023-04-25T04:33:13;22.55;;;16.98;;
5483;SDS011;2764;48.794;8.326;2023-04-25T04:34:16;24.60;;;17.02;;
5483;SDS011;2764;48.794;8.326;2023-04-25T04:35:19;18.00;;;15.27;;
5483;SDS011;2764;48.794;8.326;2023-04-25T04:36:23;20.73;;;15.52;;
5483;SDS011;2764;48.794;8.326;2023-04-25T04:37:28;23.20;;;15.50;;
5483;SDS011;2764;48.794;8.326;2023-04-25T04:38:30;22.98;;;15.68;;
5483;SDS011;2764;48.794;8.326;2023-04-25T04:39:36;22.85;;;16.63;;
5483;SDS011;2764;48.794;8.326;2023-04-25T04:40:38;24.63;;;15.35;;
5483;SDS011;2764;48.794;8.326;2023-04-25T04:41:41;25.95;;;16.35;;
5483;SDS011;2764;48.794;8.326;2023-04-25T04:42:44;26.75;;;16.70;;
5483;SDS011;2764;48.794;8.326;2023-04-25T04:43:48;24.48;;;18.05;;
5483;SDS011;2764;48.794;8.326;2023-04-25T04:44:50;35.17;;;17.63;;
5483;SDS011;2764;48.794;8.326;2023-04-25T04:45:53;23.63;;;15.45;;
5483;SDS011;2764;48.794;8.326;2023-04-25T04:46:59;27.45;;;16.38;;
5483;SDS011;2764;48.794;8.326;2023-04-25T04:48:01;23.58;;;15.73;;
5483;SDS011;2764;48.794;8.326;2023-04-25T04:49:04;29.38;;;19.00;;
5483;SDS011;2764;48.794;8.326;2023-04-25T04:50:06;27.58;;;17.75;;
5483;SDS011;2764;48.794;8.326;2023-04-25T04:51:09;22.33;;;15.77;;
5483;SDS011;2764;48.794;8.326;2023-04-25T04:52:12;29.83;;;17.70;;
5483;SDS011;2764;48.794;8.326;2023-04-25T04:53:14;23.77;;;15.65;;
5483;SDS011;2764;48.794;8.326;2023-04-25T04:54:16;26.77;;;16.90;;
5483;SDS011;2764;48.794;8.326;2023-04-25T04:55:18;26.35;;;16.15;;
5483;SDS011;2764;48.794;8.326;2023-04-25T04:56:21;31.13;;;18.50;;
5483;SDS011;2764;48.794;8.326;2023-04-25T04:57:25;29.70;;;19.88;;
5483;SDS011;2764;48.794;8.326;2023-04-25T04:58:27;24.42;;;16.67;;
5483;SDS011;2764;48.794;8.326;2023-04-25T04:59:31;22.20;;;17.08;;
5483;SDS011;2764;48.794;8.326;2023-04-25T05:00:32;31.40;;;17.10;;
5483;SDS011;2764;48.794;8.326;2023-04-25T05:01:35;23.70;;;17.10;;
5483;SDS011;2764;48.794;8.326;2023-04-25T05:02:38;23.35;;;16.33;;
5483;SDS011;2764;48.794;8.326;2023-04-25T05:03:40;24.33;;;16.85;;
5483;SDS011;2764;48.794;8.326;2023-04-25T05:04:43;21.90;;;15.32;;
5483;SDS011;2764;48.794;8.326;2023-04-25T05:05:45;17.70;;;15.13;;
5483;SDS011;2764;48.794;8.326;2023-04-25T05:06:47;20.92;;;15.07;;
5483;SDS011;2764;48.794;8.326;2023-04-25T05:07:49;21.02;;;15.98;;
5483;SDS011;2764;48.794;8.326;2023-04-25T05:08:51;22.42;;;16.88;;
5483;SDS011;2764;48.794;8.326;2023-04-25T05:09:54;25.70;;;16.35;;
5483;SDS011;2764;48.794;8.326;2023-04-25T05:10:56;25.55;;;16.42;;
5483;SDS011;2764;48.794;8.326;2023-04-25T05:11:58;23.73;;;16.98;;
5483;SDS011;2764;48.794;8.326;2023-04-25T05:13:02;26.92;;;17.02;;
5483;SDS011;2764;48.794;8.326;2023-04-25T05:14:04;28.30;;;15.82;;
5483;SDS011;2764;48.794;8.326;2023-04-25T05:15:07;26.20;;;17.00;;
5483;SDS011;2764;48.794;8.326;2023-04-25T05:16:09;23.20;;;16.77;;
5483;SDS011;2764;48.794;8.326;2023-04-25T05:17:11;34.00;;;17.40;;
5483;SDS011;2764;48.794;8.326;2023-04-25T05:18:14;43.28;;;17.80;;
5483;SDS011;2764;48.794;8.326;2023-04-25T05:19:16;27.75;;;17.52;;
5483;SDS011;2764;48.794;8.326;2023-04-25T05:20:19;26.60;;;15.98;;
5483;SDS011;2764;48.794;8.326;2023-04-25T05:21:22;26.02;;;14.30;;
5483;SDS011;2764;48.794;8.326;2023-04-25T05:22:24;31.13;;;18.45;;
5483;SDS011;2764;48.794;8.326;2023-04-25T05:23:26;25.83;;;17.55;;
5483;SDS011;2764;48.794;8.326;2023-04-25T05:24:29;27.88;;;16.77;;
5483;SDS011;2764;48.794;8.326;2023-04-25T05:25:32;20.50;;;14.98;;
5483;SDS011;2764;48.794;8.326;2023-04-25T05:26:33;26.08;;;15.80;;
5483;SDS011;2764;48.794;8.326;2023-04-25T05:27:35;23.38;;;16.10;;
5483;SDS011;2764;48.794;8.326;2023-04-25T05:28:37;22.70;;;14.77;;
5483;SDS011;2764;48.794;8.326;2023-04-25T05:29:39;22.85;;;15.80;;
5483;SDS011;2764;48.794;8.326;2023-04-25T05:30:41;20.05;;;13.50;;
5483;SDS011;2764;48.794;8.326;2023-04-25T05:31:43;23.15;;;16.20;;
5483;SDS011;2764;48.794;8.326;2023-04-25T05:32:45;26.95;;;15.82;;
5483;SDS011;2764;48.794;8.326;2023-04-25T05:33:48;30.40;;;15.73;;
5483;SDS011;2764;48.794;8.326;2023-04-25T05:34:51;21.08;;;15.90;;
5483;SDS011;2764;48.794;8.326;2023-04-25T05:35:53;19.30;;;15.15;;
5483;SDS011;2764;48.794;8.326;2023-04-25T05:36:55;25.73;;;16.20;;
5483;SDS011;2764;48.794;8.326;2023-04-25T05:37:57;23.55;;;18.50;;
5483;SDS011;2764;48.794;8.326;2023-04-25T05:38:59;22.08;;;17.38;;
5483;SDS011;2764;48.794;8.326;2023-04-25T05:40:02;19.27;;;15.10;;
5483;SDS011;2764;48.794;8.326;2023-04-25T05:41:08;22.73;;;16.85;;
5483;SDS011;2764;48.794;8.326;2023-04-25T05:42:13;25.27;;;16.77;;
5483;SDS011;2764;48.794;8.326;2023-04-25T05:43:15;29.10;;;16.90;;
5483;SDS011;2764;48.794;8.326;2023-04-25T05:44:20;20.13;;;15.57;;
5483;SDS011;2764;48.794;8.326;2023-04-25T05:45:21;26.42;;;17.00;;
5483;SDS011;2764;48.794;8.326;2023-04-25T05:46:23;26.17;;;17.65;;
5483;SDS011;2764;48.794;8.326;2023-04-25T05:47:25;31.08;;;18.40;;
5483;SDS011;2764;48.794;8.326;2023-04-25T05:48:27;19.90;;;15.65;;
5483;SDS011;2764;48.794;8.326;2023-04-25T05:49:29;22.80;;;15.43;;
5483;SDS011;2764;48.794;8.326;2023-04-25T05:50:30;32.95;;;19.63;;
5483;SDS011;2764;48.794;8.326;2023-04-25T05:51:33;26.35;;;17.50;;
5483;SDS011;2764;48.794;8.326;2023-04-25T05:52:38;28.85;;;16.30;;
5483;SDS011;2764;48.794;8.326;2023-04-25T05:53:40;20.00;;;15.68;;
5483;SDS011;2764;48.794;8.326;2023-04-25T05:54:41;20.58;;;15.73;;
5483;SDS011;2764;48.794;8.326;2023-04-25T05:55:44;26.02;;;17.45;;
5483;SDS011;2764;48.794;8.326;2023-04-25T05:56:46;28.08;;;16.90;;
5483;SDS011;2764;48.794;8.326;2023-04-25T05:57:49;29.85;;;18.08;;
5483;SDS011;2764;48.794;8.326;2023-04-25T05:58:52;26.13;;;16.70;;
5483;SDS011;2764;48.794;8.326;2023-04-25T05:59:54;22.48;;;16.90;;
5483;SDS011;2764;48.794;8.326;2023-04-25T06:00:55;21.92;;;15.55;;
5483;SDS011;2764;48.794;8.326;2023-04-25T06:01:59;24.45;;;17.70;;
5483;SDS011;2764;48.794;8.326;2023-04-25T06:03:02;26.83;;;19.55;;
5483;SDS011;2764;48.794;8.326;2023-04-25T06:04:04;61.13;;;27.73;;
5483;SDS011;2764;48.794;8.326;2023-04-25T06:05:07;60.45;;;30.10;;
5483;SDS011;2764;48.794;8.326;2023-04-25T06:06:10;63.22;;;25.90;;
5483;SDS011;2764;48.794;8.326;2023-04-25T06:07:14;40.85;;;23.83;;
5483;SDS011;2764;48.794;8.326;2023-04-25T06:08:15;44.35;;;22.65;;
5483;SDS011;2764;48.794;8.326;2023-04-25T06:09:17;33.13;;;19.85;;
5483;SDS011;2764;48.794;8.326;2023-04-25T06:10:18;36.90;;;21.00;;
5483;SDS011;2764;48.794;8.326;2023-04-25T06:11:20;32.33;;;20.40;;
5483;SDS011;2764;48.794;8.326;2023-04-25T06:12:22;24.90;;;18.42;;
5483;SDS011;2764;48.794;8.326;2023-04-25T06:13:23;32.20;;;20.00;;
5483;SDS011;2764;48.794;8.326;2023-04-25T06:14:28;28.02;;;18.25;;
5483;SDS011;2764;48.794;8.326;2023-04-25T06:15:30;23.50;;;18.08;;
5483;SDS011;2764;48.794;8.326;2023-04-25T06:16:33;22.83;;;16.70;;
5483;SDS011;2764;48.794;8.326;2023-04-25T06:17:36;29.75;;;18.60;;